sensor_id;sensor_type;location;lat;lon;timestamp;pressure;altitude;pressure_sealevel;temperature
76583;BMP280;65462;52.148;7.940;2023-07-29T00:01:00;99936.88;;;20.01
76583;BMP280;65462;52.148;7.940;2023-07-29T00:03:26;99939.53;;;20.01
76583;BMP280;65462;52.148;7.940;2023-07-29T00:05:51;99949.50;;;20.00
76583;BMP280;65462;52.148;7.940;2023-07-29T00:08:17;99942.22;;;20.01
76583;BMP280;65462;52.148;7.940;2023-07-29T00:10:42;99933.41;;;20.00
76583;BMP280;65462;52.148;7.940;2023-07-29T00:13:07;99940.72;;;20.00
76583;BMP280;65462;52.148;7.940;2023-07-29T00:15:33;99930.41;;;19.98
76583;BMP280;65462;52.148;7.940;2023-07-29T00:17:58;99944.56;;;19.99
76583;BMP280;65462;52.148;7.940;2023-07-29T00:20:23;99938.84;;;19.97
76583;BMP280;65462;52.148;7.940;2023-07-29T00:22:49;99941.19;;;19.95
76583;BMP280;65462;52.148;7.940;2023-07-29T00:25:21;99941.50;;;19.97
76583;BMP280;65462;52.148;7.940;2023-07-29T00:27:46;99941.91;;;19.95
76583;BMP280;65462;52.148;7.940;2023-07-29T00:30:12;99933.88;;;19.95
76583;BMP280;65462;52.148;7.940;2023-07-29T00:32:37;99930.44;;;19.95
76583;BMP280;65462;52.148;7.940;2023-07-29T00:35:03;99917.03;;;19.95
76583;BMP280;65462;52.148;7.940;2023-07-29T00:37:29;99915.50;;;19.94
76583;BMP280;65462;52.148;7.940;2023-07-29T00:39:55;99919.34;;;19.93
76583;BMP280;65462;52.148;7.940;2023-07-29T00:42:20;99917.41;;;19.93
76583;BMP280;65462;52.148;7.940;2023-07-29T00:44:45;99913.63;;;19.91
76583;BMP280;65462;52.148;7.940;2023-07-29T00:47:11;99901.78;;;19.88
76583;BMP280;65462;52.148;7.940;2023-07-29T00:49:37;99912.09;;;19.90
76583;BMP280;65462;52.148;7.940;2023-07-29T00:52:03;99909.06;;;19.88
76583;BMP280;65462;52.148;7.940;2023-07-29T00:54:28;99906.00;;;19.86
76583;BMP280;65462;52.148;7.940;2023-07-29T00:56:54;99906.78;;;19.86
76583;BMP280;65462;52.148;7.940;2023-07-29T00:59:19;99900.66;;;19.86
76583;BMP280;65462;52.148;7.940;2023-07-29T01:01:44;99897.22;;;19.85
76583;BMP280;65462;52.148;7.940;2023-07-29T01:04:10;99891.47;;;19.83
76583;BMP280;65462;52.148;7.940;2023-07-29T01:09:14;99890.38;;;19.81
76583;BMP280;65462;52.148;7.940;2023-07-29T01:12:07;99890.03;;;19.79
76583;BMP280;65462;52.148;7.940;2023-07-29T01:14:51;99893.88;;;19.78
76583;BMP280;65462;52.148;7.940;2023-07-29T01:17:23;99883.94;;;19.75
76583;BMP280;65462;52.148;7.940;2023-07-29T01:22:23;99894.38;;;19.69
76583;BMP280;65462;52.148;7.940;2023-07-29T01:24:49;99901.66;;;19.69
76583;BMP280;65462;52.148;7.940;2023-07-29T01:27:14;99893.22;;;19.67
76583;BMP280;65462;52.148;7.940;2023-07-29T01:29:39;99902.47;;;19.66
76583;BMP280;65462;52.148;7.940;2023-07-29T01:32:14;99904.75;;;19.64
76583;BMP280;65462;52.148;7.940;2023-07-29T01:34:52;99900.56;;;19.63
76583;BMP280;65462;52.148;7.940;2023-07-29T01:37:22;99897.16;;;19.59
76583;BMP280;65462;52.148;7.940;2023-07-29T01:39:51;99907.53;;;19.57
76583;BMP280;65462;52.148;7.940;2023-07-29T01:42:20;99904.47;;;19.55
76583;BMP280;65462;52.148;7.940;2023-07-29T01:44:45;99895.34;;;19.52
76583;BMP280;65462;52.148;7.940;2023-07-29T01:47:10;99896.88;;;19.50
76583;BMP280;65462;52.148;7.940;2023-07-29T01:49:36;99879.25;;;19.49
76583;BMP280;65462;52.148;7.940;2023-07-29T01:52:02;99887.34;;;19.45
76583;BMP280;65462;52.148;7.940;2023-07-29T01:54:27;99878.22;;;19.43
76583;BMP280;65462;52.148;7.940;2023-07-29T01:56:53;99864.41;;;19.40
76583;BMP280;65462;52.148;7.940;2023-07-29T01:59:18;99859.88;;;19.37
76583;BMP280;65462;52.148;7.940;2023-07-29T02:01:43;99861.44;;;19.35
76583;BMP280;65462;52.148;7.940;2023-07-29T02:04:08;99854.63;;;19.30
76583;BMP280;65462;52.148;7.940;2023-07-29T02:06:34;99847.38;;;19.27
76583;BMP280;65462;52.148;7.940;2023-07-29T02:08:59;99854.28;;;19.25
76583;BMP280;65462;52.148;7.940;2023-07-29T02:11:24;99852.41;;;19.22
76583;BMP280;65462;52.148;7.940;2023-07-29T02:13:53;99843.22;;;19.19
76583;BMP280;65462;52.148;7.940;2023-07-29T02:16:19;99850.94;;;19.17
76583;BMP280;65462;52.148;7.940;2023-07-29T02:18:44;99850.16;;;19.17
76583;BMP280;65462;52.148;7.940;2023-07-29T02:21:09;99854.03;;;19.12
76583;BMP280;65462;52.148;7.940;2023-07-29T02:23:34;99850.59;;;19.12
76583;BMP280;65462;52.148;7.940;2023-07-29T02:26:00;99849.06;;;19.11
76583;BMP280;65462;52.148;7.940;2023-07-29T02:28:25;99850.59;;;19.12
76583;BMP280;65462;52.148;7.940;2023-07-29T02:31:21;99842.16;;;19.13
76583;BMP280;65462;52.148;7.940;2023-07-29T02:33:47;99834.47;;;19.15
76583;BMP280;65462;52.148;7.940;2023-07-29T02:36:13;99832.97;;;19.14
76583;BMP280;65462;52.148;7.940;2023-07-29T02:38:39;99840.22;;;19.14
76583;BMP280;65462;52.148;7.940;2023-07-29T02:41:05;99848.69;;;19.12
76583;BMP280;65462;52.148;7.940;2023-07-29T02:43:30;99834.91;;;19.10
76583;BMP280;65462;52.148;7.940;2023-07-29T02:45:55;99838.75;;;19.09
76583;BMP280;65462;52.148;7.940;2023-07-29T02:48:21;99838.00;;;19.09
76583;BMP280;65462;52.148;7.940;2023-07-29T02:50:46;99837.59;;;19.10
76583;BMP280;65462;52.148;7.940;2023-07-29T02:53:11;99837.94;;;19.12
76583;BMP280;65462;52.148;7.940;2023-07-29T02:55:40;99831.44;;;19.13
76583;BMP280;65462;52.148;7.940;2023-07-29T02:58:05;99833.69;;;19.15
76583;BMP280;65462;52.148;7.940;2023-07-29T03:00:31;99837.16;;;19.15
76583;BMP280;65462;52.148;7.940;2023-07-29T03:02:58;99826.44;;;19.15
76583;BMP280;65462;52.148;7.940;2023-07-29T03:05:23;99820.69;;;19.17
76583;BMP280;65462;52.148;7.940;2023-07-29T03:07:49;99825.63;;;19.18
76583;BMP280;65462;52.148;7.940;2023-07-29T03:10:14;99819.53;;;19.18
76583;BMP280;65462;52.148;7.940;2023-07-29T03:12:40;99824.16;;;19.17
76583;BMP280;65462;52.148;7.940;2023-07-29T03:15:06;99828.72;;;19.17
76583;BMP280;65462;52.148;7.940;2023-07-29T03:17:31;99828.34;;;19.15
76583;BMP280;65462;52.148;7.940;2023-07-29T03:19:56;99826.44;;;19.15
76583;BMP280;65462;52.148;7.940;2023-07-29T03:22:22;99825.66;;;19.15
76583;BMP280;65462;52.148;7.940;2023-07-29T03:24:47;99832.56;;;19.16
76583;BMP280;65462;52.148;7.940;2023-07-29T03:27:12;99831.78;;;19.15
76583;BMP280;65462;52.148;7.940;2023-07-29T03:29:38;99828.72;;;19.17
76583;BMP280;65462;52.148;7.940;2023-07-29T03:32:03;99825.63;;;19.18
76583;BMP280;65462;52.148;7.940;2023-07-29T03:34:29;99828.31;;;19.18
76583;BMP280;65462;52.148;7.940;2023-07-29T03:36:54;99831.75;;;19.19
76583;BMP280;65462;52.148;7.940;2023-07-29T03:39:20;99837.09;;;19.19
76583;BMP280;65462;52.148;7.940;2023-07-29T03:41:45;99838.28;;;19.18
76583;BMP280;65462;52.148;7.940;2023-07-29T03:44:10;99838.28;;;19.18
76583;BMP280;65462;52.148;7.940;2023-07-29T03:46:35;99837.09;;;19.19
76583;BMP280;65462;52.148;7.940;2023-07-29T03:49:01;99841.69;;;19.18
76583;BMP280;65462;52.148;7.940;2023-07-29T03:51:26;99843.63;;;19.18
76583;BMP280;65462;52.148;7.940;2023-07-29T03:53:51;99846.31;;;19.18
76583;BMP280;65462;52.148;7.940;2023-07-29T03:56:17;99847.06;;;19.18
76583;BMP280;65462;52.148;7.940;2023-07-29T03:58:43;99832.50;;;19.19
76583;BMP280;65462;52.148;7.940;2023-07-29T04:01:09;99821.81;;;19.19
76583;BMP280;65462;52.148;7.940;2023-07-29T04:03:34;99828.25;;;19.25
76583;BMP280;65462;52.148;7.940;2023-07-29T04:05:59;99814.09;;;19.25
76583;BMP280;65462;52.148;7.940;2023-07-29T04:08:25;99817.16;;;19.23
76583;BMP280;65462;52.148;7.940;2023-07-29T04:10:50;99817.16;;;19.23
76583;BMP280;65462;52.148;7.940;2023-07-29T04:13:16;99816.41;;;19.23
76583;BMP280;65462;52.148;7.940;2023-07-29T04:15:41;99812.94;;;19.22
76583;BMP280;65462;52.148;7.940;2023-07-29T04:18:06;99810.28;;;19.22
76583;BMP280;65462;52.148;7.940;2023-07-29T04:20:32;99806.84;;;19.22
76583;BMP280;65462;52.148;7.940;2023-07-29T04:22:58;99802.66;;;19.21
76583;BMP280;65462;52.148;7.940;2023-07-29T04:25:24;99814.88;;;19.22
76583;BMP280;65462;52.148;7.940;2023-07-29T04:27:49;99801.91;;;19.20
76583;BMP280;65462;52.148;7.940;2023-07-29T04:30:14;99800.72;;;19.21
76583;BMP280;65462;52.148;7.940;2023-07-29T04:32:40;99795.00;;;19.19
76583;BMP280;65462;52.148;7.940;2023-07-29T04:35:08;99798.03;;;19.21
76583;BMP280;65462;52.148;7.940;2023-07-29T04:37:33;99806.44;;;19.23
76583;BMP280;65462;52.148;7.940;2023-07-29T04:39:58;99808.41;;;19.19
76583;BMP280;65462;52.148;7.940;2023-07-29T04:42:23;99810.63;;;19.24
76583;BMP280;65462;52.148;7.940;2023-07-29T04:44:49;99807.94;;;19.24
76583;BMP280;65462;52.148;7.940;2023-07-29T04:47:14;99805.28;;;19.24
76583;BMP280;65462;52.148;7.940;2023-07-29T04:49:39;99810.63;;;19.24
76583;BMP280;65462;52.148;7.940;2023-07-29T04:52:05;99817.94;;;19.24
76583;BMP280;65462;52.148;7.940;2023-07-29T04:54:30;99813.31;;;19.24
76583;BMP280;65462;52.148;7.940;2023-07-29T04:56:56;99805.66;;;19.26
76583;BMP280;65462;52.148;7.940;2023-07-29T04:59:21;99799.13;;;19.27
76583;BMP280;65462;52.148;7.940;2023-07-29T05:01:46;99786.91;;;19.26
76583;BMP280;65462;52.148;7.940;2023-07-29T05:04:12;99790.72;;;19.25
76583;BMP280;65462;52.148;7.940;2023-07-29T05:06:37;99798.72;;;19.29
76583;BMP280;65462;52.148;7.940;2023-07-29T05:09:13;99784.56;;;19.28
76583;BMP280;65462;52.148;7.940;2023-07-29T05:11:38;99790.31;;;19.30
76583;BMP280;65462;52.148;7.940;2023-07-29T05:14:04;99794.84;;;19.33
76583;BMP280;65462;52.148;7.940;2023-07-29T05:16:31;99790.66;;;19.32
76583;BMP280;65462;52.148;7.940;2023-07-29T05:18:56;99777.59;;;19.34
76583;BMP280;65462;52.148;7.940;2023-07-29T05:21:21;99773.75;;;19.35
76583;BMP280;65462;52.148;7.940;2023-07-29T05:23:47;99774.88;;;19.38
76583;BMP280;65462;52.148;7.940;2023-07-29T05:26:12;99772.56;;;19.40
76583;BMP280;65462;52.148;7.940;2023-07-29T05:28:37;99774.81;;;19.42
76583;BMP280;65462;52.148;7.940;2023-07-29T05:31:02;99782.81;;;19.45
76583;BMP280;65462;52.148;7.940;2023-07-29T05:33:28;99790.81;;;19.49
76583;BMP280;65462;52.148;7.940;2023-07-29T05:35:53;99786.63;;;19.48
76583;BMP280;65462;52.148;7.940;2023-07-29T05:38:19;99795.03;;;19.50
76583;BMP280;65462;52.148;7.940;2023-07-29T05:40:44;99798.47;;;19.50
76583;BMP280;65462;52.148;7.940;2023-07-29T05:43:10;99798.84;;;19.52
76583;BMP280;65462;52.148;7.940;2023-07-29T05:45:35;99803.38;;;19.55
76583;BMP280;65462;52.148;7.940;2023-07-29T05:48:01;99816.31;;;19.60
76583;BMP280;65462;52.148;7.940;2023-07-29T05:50:26;99808.22;;;19.64
76583;BMP280;65462;52.148;7.940;2023-07-29T05:52:51;99812.78;;;19.67
76583;BMP280;65462;52.148;7.940;2023-07-29T05:55:17;99803.59;;;19.68
76583;BMP280;65462;52.148;7.940;2023-07-29T05:57:42;99803.94;;;19.70
76583;BMP280;65462;52.148;7.940;2023-07-29T06:00:07;99810.44;;;19.72
76583;BMP280;65462;52.148;7.940;2023-07-29T06:02:33;99803.50;;;19.75
76583;BMP280;65462;52.148;7.940;2023-07-29T06:04:58;99800.41;;;19.76
76583;BMP280;65462;52.148;7.940;2023-07-29T06:07:24;99791.19;;;19.77
76583;BMP280;65462;52.148;7.940;2023-07-29T06:09:49;99785.47;;;19.79
76583;BMP280;65462;52.148;7.940;2023-07-29T06:12:15;99780.81;;;19.79
76583;BMP280;65462;52.148;7.940;2023-07-29T06:14:40;99780.78;;;19.83
76583;BMP280;65462;52.148;7.940;2023-07-29T06:17:05;99777.63;;;19.88
76583;BMP280;65462;52.148;7.940;2023-07-29T06:19:32;99768.78;;;19.91
76583;BMP280;65462;52.148;7.940;2023-07-29T06:21:57;99758.06;;;19.91
76583;BMP280;65462;52.148;7.940;2023-07-29T06:24:22;99756.09;;;19.95
76583;BMP280;65462;52.148;7.940;2023-07-29T06:26:48;99758.72;;;19.98
76583;BMP280;65462;52.148;7.940;2023-07-29T06:29:13;99763.25;;;20.01
76583;BMP280;65462;52.148;7.940;2023-07-29T06:31:38;99783.91;;;20.04
76583;BMP280;65462;52.148;7.940;2023-07-29T06:34:03;99793.00;;;20.10
76583;BMP280;65462;52.148;7.940;2023-07-29T06:36:29;99799.81;;;20.15
76583;BMP280;65462;52.148;7.940;2023-07-29T06:38:54;99807.47;;;20.16
76583;BMP280;65462;52.148;7.940;2023-07-29T06:41:19;99802.81;;;20.20
76583;BMP280;65462;52.148;7.940;2023-07-29T06:43:44;99803.50;;;20.24
76583;BMP280;65462;52.148;7.940;2023-07-29T06:46:10;99806.97;;;20.25
76583;BMP280;65462;52.148;7.940;2023-07-29T06:48:36;99803.44;;;20.28
76583;BMP280;65462;52.148;7.940;2023-07-29T06:51:01;99800.00;;;20.27
76583;BMP280;65462;52.148;7.940;2023-07-29T06:53:27;99797.66;;;20.29
76583;BMP280;65462;52.148;7.940;2023-07-29T06:55:53;99814.88;;;20.32
76583;BMP280;65462;52.148;7.940;2023-07-29T06:58:19;99812.97;;;20.32
76583;BMP280;65462;52.148;7.940;2023-07-29T07:00:44;99807.59;;;20.32
76583;BMP280;65462;52.148;7.940;2023-07-29T07:03:09;99801.78;;;20.34
76583;BMP280;65462;52.148;7.940;2023-07-29T07:05:35;99806.38;;;20.37
76583;BMP280;65462;52.148;7.940;2023-07-29T07:08:00;99804.88;;;20.36
76583;BMP280;65462;52.148;7.940;2023-07-29T07:10:25;99817.41;;;20.42
76583;BMP280;65462;52.148;7.940;2023-07-29T07:12:51;99813.22;;;20.42
76583;BMP280;65462;52.148;7.940;2023-07-29T07:15:16;99811.63;;;20.44
76583;BMP280;65462;52.148;7.940;2023-07-29T07:17:41;99813.53;;;20.43
76583;BMP280;65462;52.148;7.940;2023-07-29T07:20:07;99815.78;;;20.49
76583;BMP280;65462;52.148;7.940;2023-07-29T07:22:32;99830.63;;;20.53
76583;BMP280;65462;52.148;7.940;2023-07-29T07:24:57;99834.38;;;20.59
76583;BMP280;65462;52.148;7.940;2023-07-29T07:27:23;99843.56;;;20.62
76583;BMP280;65462;52.148;7.940;2023-07-29T07:29:48;99853.41;;;20.68
76583;BMP280;65462;52.148;7.940;2023-07-29T07:32:13;99868.69;;;20.71
76583;BMP280;65462;52.148;7.940;2023-07-29T07:34:38;99865.53;;;20.76
76583;BMP280;65462;52.148;7.940;2023-07-29T07:37:04;99877.03;;;20.77
76583;BMP280;65462;52.148;7.940;2023-07-29T07:39:30;99885.47;;;20.79
76583;BMP280;65462;52.148;7.940;2023-07-29T07:41:55;99884.31;;;20.76
76583;BMP280;65462;52.148;7.940;2023-07-29T07:44:20;99889.44;;;20.71
76583;BMP280;65462;52.148;7.940;2023-07-29T07:46:46;99892.50;;;20.69
76583;BMP280;65462;52.148;7.940;2023-07-29T07:49:11;99894.03;;;20.70
76583;BMP280;65462;52.148;7.940;2023-07-29T07:51:38;99900.50;;;20.73
76583;BMP280;65462;52.148;7.940;2023-07-29T07:54:03;99900.50;;;20.73
76583;BMP280;65462;52.148;7.940;2023-07-29T07:56:28;99897.38;;;20.78
76583;BMP280;65462;52.148;7.940;2023-07-29T07:58:53;99899.63;;;20.79
76583;BMP280;65462;52.148;7.940;2023-07-29T08:01:19;99897.25;;;20.85
76583;BMP280;65462;52.148;7.940;2023-07-29T08:03:44;99895.19;;;20.92
76583;BMP280;65462;52.148;7.940;2023-07-29T08:06:10;99897.81;;;20.96
76583;BMP280;65462;52.148;7.940;2023-07-29T08:08:35;99901.25;;;20.96
76583;BMP280;65462;52.148;7.940;2023-07-29T08:11:00;99902.03;;;20.97
76583;BMP280;65462;52.148;7.940;2023-07-29T08:13:26;99901.53;;;21.02
76583;BMP280;65462;52.148;7.940;2023-07-29T08:15:52;99908.38;;;21.06
76583;BMP280;65462;52.148;7.940;2023-07-29T08:18:18;99913.75;;;21.06
76583;BMP280;65462;52.148;7.940;2023-07-29T08:21:09;99906.03;;;21.08
76583;BMP280;65462;52.148;7.940;2023-07-29T08:23:36;99916.78;;;21.08
76583;BMP280;65462;52.148;7.940;2023-07-29T08:26:05;99921.00;;;21.09
76583;BMP280;65462;52.148;7.940;2023-07-29T08:28:32;99911.78;;;21.10
76583;BMP280;65462;52.148;7.940;2023-07-29T08:30:57;99911.78;;;21.10
76583;BMP280;65462;52.148;7.940;2023-07-29T08:33:23;99916.66;;;21.15
76583;BMP280;65462;52.148;7.940;2023-07-29T08:35:48;99918.88;;;21.20
76583;BMP280;65462;52.148;7.940;2023-07-29T08:38:13;99912.31;;;21.21
76583;BMP280;65462;52.148;7.940;2023-07-29T08:40:45;99915.41;;;21.20
76583;BMP280;65462;52.148;7.940;2023-07-29T08:43:12;99913.16;;;21.18
76583;BMP280;65462;52.148;7.940;2023-07-29T08:45:39;99921.91;;;21.22
76583;BMP280;65462;52.148;7.940;2023-07-29T08:48:07;99919.16;;;21.26
76583;BMP280;65462;52.148;7.940;2023-07-29T08:50:35;99903.09;;;21.22
76583;BMP280;65462;52.148;7.940;2023-07-29T08:53:03;99910.72;;;21.24
76583;BMP280;65462;52.148;7.940;2023-07-29T08:55:29;99904.19;;;21.25
76583;BMP280;65462;52.148;7.940;2023-07-29T08:57:55;99905.28;;;21.27
76583;BMP280;65462;52.148;7.940;2023-07-29T09:00:21;99902.13;;;21.32
76583;BMP280;65462;52.148;7.940;2023-07-29T09:02:47;99912.81;;;21.36
76583;BMP280;65462;52.148;7.940;2023-07-29T09:05:12;99898.88;;;21.41
76583;BMP280;65462;52.148;7.940;2023-07-29T09:07:38;99898.81;;;21.44
76583;BMP280;65462;52.148;7.940;2023-07-29T09:10:03;99898.31;;;21.49
76583;BMP280;65462;52.148;7.940;2023-07-29T09:12:29;99900.84;;;21.57
76583;BMP280;65462;52.148;7.940;2023-07-29T09:14:54;99903.00;;;21.65
76583;BMP280;65462;52.148;7.940;2023-07-29T09:17:20;99908.13;;;21.76
76583;BMP280;65462;52.148;7.940;2023-07-29T09:19:50;99904.13;;;21.84
76583;BMP280;65462;52.148;7.940;2023-07-29T09:22:20;99909.63;;;21.96
76583;BMP280;65462;52.148;7.940;2023-07-29T09:24:46;99912.94;;;22.04
76583;BMP280;65462;52.148;7.940;2023-07-29T09:27:28;99897.66;;;22.17
76583;BMP280;65462;52.148;7.940;2023-07-29T09:29:55;99906.91;;;22.32
76583;BMP280;65462;52.148;7.940;2023-07-29T09:32:22;99902.00;;;22.43
76583;BMP280;65462;52.148;7.940;2023-07-29T09:34:47;99902.16;;;22.52
76583;BMP280;65462;52.148;7.940;2023-07-29T09:37:31;99907.22;;;22.66
76583;BMP280;65462;52.148;7.940;2023-07-29T09:39:57;99908.00;;;22.79
76583;BMP280;65462;52.148;7.940;2023-07-29T09:42:22;99914.25;;;22.92
76583;BMP280;65462;52.148;7.940;2023-07-29T09:44:50;99914.34;;;23.01
76583;BMP280;65462;52.148;7.940;2023-07-29T09:47:20;99918.72;;;23.11
76583;BMP280;65462;52.148;7.940;2023-07-29T09:49:45;99911.38;;;23.12
76583;BMP280;65462;52.148;7.940;2023-07-29T09:52:11;99918.22;;;23.16
76583;BMP280;65462;52.148;7.940;2023-07-29T09:54:36;99909.59;;;23.21
76583;BMP280;65462;52.148;7.940;2023-07-29T09:57:02;99910.66;;;23.24
76583;BMP280;65462;52.148;7.940;2023-07-29T09:59:27;99906.03;;;23.24
76583;BMP280;65462;52.148;7.940;2023-07-29T10:01:53;99902.91;;;23.26
76583;BMP280;65462;52.148;7.940;2023-07-29T10:04:18;99900.84;;;23.30
76583;BMP280;65462;52.148;7.940;2023-07-29T10:06:45;99904.97;;;23.34
76583;BMP280;65462;52.148;7.940;2023-07-29T10:09:11;99910.28;;;23.38
76583;BMP280;65462;52.148;7.940;2023-07-29T10:11:39;99904.34;;;23.43
76583;BMP280;65462;52.148;7.940;2023-07-29T10:14:04;99920.78;;;23.48
76583;BMP280;65462;52.148;7.940;2023-07-29T10:16:29;99916.09;;;23.49
76583;BMP280;65462;52.148;7.940;2023-07-29T10:18:56;99908.28;;;23.54
76583;BMP280;65462;52.148;7.940;2023-07-29T10:21:22;99910.50;;;23.56
76583;BMP280;65462;52.148;7.940;2023-07-29T10:23:49;99919.28;;;23.60
76583;BMP280;65462;52.148;7.940;2023-07-29T10:26:16;99904.59;;;23.61
76583;BMP280;65462;52.148;7.940;2023-07-29T10:28:47;99908.28;;;23.67
76583;BMP280;65462;52.148;7.940;2023-07-29T10:31:15;99909.03;;;23.67
76583;BMP280;65462;52.148;7.940;2023-07-29T10:33:41;99917.44;;;23.69
76583;BMP280;65462;52.148;7.940;2023-07-29T10:36:06;99915.94;;;23.68
76583;BMP280;65462;52.148;7.940;2023-07-29T10:38:33;99921.34;;;23.68
76583;BMP280;65462;52.148;7.940;2023-07-29T10:40:58;99921.75;;;23.67
76583;BMP280;65462;52.148;7.940;2023-07-29T10:45:53;99920.13;;;23.57
76583;BMP280;65462;52.148;7.940;2023-07-29T10:53:56;99918.91;;;23.33
76583;BMP280;65462;52.148;7.940;2023-07-29T10:56:35;99916.63;;;23.31
76583;BMP280;65462;52.148;7.940;2023-07-29T11:01:41;99910.94;;;23.29
76583;BMP280;65462;52.148;7.940;2023-07-29T11:12:44;99902.41;;;23.43
76583;BMP280;65462;52.148;7.940;2023-07-29T11:15:22;99906.09;;;23.49
76583;BMP280;65462;52.148;7.940;2023-07-29T11:17:58;99903.19;;;23.56
76583;BMP280;65462;52.148;7.940;2023-07-29T11:20:24;99913.09;;;23.59
76583;BMP280;65462;52.148;7.940;2023-07-29T11:22:50;99903.47;;;23.58
76583;BMP280;65462;52.148;7.940;2023-07-29T11:25:17;99896.72;;;23.54
76583;BMP280;65462;52.148;7.940;2023-07-29T11:27:43;99890.84;;;23.55
76583;BMP280;65462;52.148;7.940;2023-07-29T11:30:10;99886.69;;;23.54
76583;BMP280;65462;52.148;7.940;2023-07-29T11:32:37;99884.72;;;23.55
76583;BMP280;65462;52.148;7.940;2023-07-29T11:35:08;99891.22;;;23.57
76583;BMP280;65462;52.148;7.940;2023-07-29T11:37:35;99888.63;;;23.66
76583;BMP280;65462;52.148;7.940;2023-07-29T11:40:01;99898.00;;;23.74
76583;BMP280;65462;52.148;7.940;2023-07-29T11:42:27;99893.59;;;23.80
76583;BMP280;65462;52.148;7.940;2023-07-29T11:44:55;99891.88;;;23.87
76583;BMP280;65462;52.148;7.940;2023-07-29T11:47:21;99896.81;;;23.88
76583;BMP280;65462;52.148;7.940;2023-07-29T11:49:46;99899.97;;;23.87
76583;BMP280;65462;52.148;7.940;2023-07-29T11:52:12;99910.41;;;23.84
76583;BMP280;65462;52.148;7.940;2023-07-29T11:54:38;99900.81;;;23.83
76583;BMP280;65462;52.148;7.940;2023-07-29T11:57:07;99899.63;;;23.84
76583;BMP280;65462;52.148;7.940;2023-07-29T11:59:34;99903.09;;;23.85
76583;BMP280;65462;52.148;7.940;2023-07-29T12:02:26;99901.91;;;23.86
76583;BMP280;65462;52.148;7.940;2023-07-29T12:04:52;99893.34;;;23.88
76583;BMP280;65462;52.148;7.940;2023-07-29T12:07:18;99906.34;;;23.93
76583;BMP280;65462;52.148;7.940;2023-07-29T12:09:45;99905.56;;;23.92
76583;BMP280;65462;52.148;7.940;2023-07-29T12:12:11;99909.81;;;23.93
76583;BMP280;65462;52.148;7.940;2023-07-29T12:14:36;99911.63;;;23.96
76583;BMP280;65462;52.148;7.940;2023-07-29T12:17:04;99911.28;;;23.94
76583;BMP280;65462;52.148;7.940;2023-07-29T12:21:59;99914.94;;;23.88
76583;BMP280;65462;52.148;7.940;2023-07-29T12:24:25;99908.81;;;23.87
76583;BMP280;65462;52.148;7.940;2023-07-29T12:26:50;99901.69;;;23.93
76583;BMP280;65462;52.148;7.940;2023-07-29T12:29:17;99906.13;;;24.00
76583;BMP280;65462;52.148;7.940;2023-07-29T12:31:44;99909.13;;;24.02
76583;BMP280;65462;52.148;7.940;2023-07-29T12:34:17;99913.88;;;23.98
76583;BMP280;65462;52.148;7.940;2023-07-29T12:36:48;99920.59;;;23.93
76583;BMP280;65462;52.148;7.940;2023-07-29T12:41:49;99915.19;;;23.80
76583;BMP280;65462;52.148;7.940;2023-07-29T12:44:15;99908.28;;;23.79
76583;BMP280;65462;52.148;7.940;2023-07-29T12:46:40;99910.53;;;23.81
76583;BMP280;65462;52.148;7.940;2023-07-29T12:49:05;99909.56;;;23.88
76583;BMP280;65462;52.148;7.940;2023-07-29T12:51:32;99905.75;;;23.98
76583;BMP280;65462;52.148;7.940;2023-07-29T12:53:58;99901.78;;;24.02
76583;BMP280;65462;52.148;7.940;2023-07-29T12:56:23;99899.97;;;24.12
76583;BMP280;65462;52.148;7.940;2023-07-29T12:58:48;99902.72;;;24.21
76583;BMP280;65462;52.148;7.940;2023-07-29T13:01:14;99902.19;;;24.26
76583;BMP280;65462;52.148;7.940;2023-07-29T13:03:43;99905.50;;;24.30
76583;BMP280;65462;52.148;7.940;2023-07-29T13:06:08;99909.09;;;24.27
76583;BMP280;65462;52.148;7.940;2023-07-29T13:08:33;99911.78;;;24.27
76583;BMP280;65462;52.148;7.940;2023-07-29T13:10:59;99915.25;;;24.27
76583;BMP280;65462;52.148;7.940;2023-07-29T13:13:24;99916.25;;;24.21
76583;BMP280;65462;52.148;7.940;2023-07-29T13:15:49;99910.41;;;24.22
76583;BMP280;65462;52.148;7.940;2023-07-29T13:18:14;99916.69;;;24.19
76583;BMP280;65462;52.148;7.940;2023-07-29T13:20:40;99909.56;;;24.13
76583;BMP280;65462;52.148;7.940;2023-07-29T13:23:05;99911.06;;;24.14
76583;BMP280;65462;52.148;7.940;2023-07-29T13:25:30;99905.66;;;24.14
76583;BMP280;65462;52.148;7.940;2023-07-29T13:27:56;99916.78;;;24.16
76583;BMP280;65462;52.148;7.940;2023-07-29T13:30:21;99914.41;;;24.18
76583;BMP280;65462;52.148;7.940;2023-07-29T13:32:46;99925.41;;;24.23
76583;BMP280;65462;52.148;7.940;2023-07-29T13:35:11;99913.97;;;24.32
76583;BMP280;65462;52.148;7.940;2023-07-29T13:37:37;99904.63;;;24.33
76583;BMP280;65462;52.148;7.940;2023-07-29T13:40:02;99906.50;;;24.36
76583;BMP280;65462;52.148;7.940;2023-07-29T13:42:27;99916.97;;;24.34
76583;BMP280;65462;52.148;7.940;2023-07-29T13:44:53;99912.75;;;24.33
76583;BMP280;65462;52.148;7.940;2023-07-29T13:47:18;99916.78;;;24.28
76583;BMP280;65462;52.148;7.940;2023-07-29T13:49:43;99904.88;;;24.26
76583;BMP280;65462;52.148;7.940;2023-07-29T13:52:09;99913.63;;;24.30
76583;BMP280;65462;52.148;7.940;2023-07-29T13:54:34;99912.75;;;24.33
76583;BMP280;65462;52.148;7.940;2023-07-29T13:56:59;99915.78;;;24.35
76583;BMP280;65462;52.148;7.940;2023-07-29T13:59:24;99901.69;;;24.40
76583;BMP280;65462;52.148;7.940;2023-07-29T14:01:49;99904.09;;;24.38
76583;BMP280;65462;52.148;7.940;2023-07-29T14:04:15;99921.97;;;24.35
76583;BMP280;65462;52.148;7.940;2023-07-29T14:06:40;99921.59;;;24.33
76583;BMP280;65462;52.148;7.940;2023-07-29T14:09:06;99941.16;;;24.37
76583;BMP280;65462;52.148;7.940;2023-07-29T14:11:32;99931.47;;;24.27
76583;BMP280;65462;52.148;7.940;2023-07-29T14:13:57;99917.78;;;24.09
76583;BMP280;65462;52.148;7.940;2023-07-29T14:16:22;99926.78;;;23.94
76583;BMP280;65462;52.148;7.940;2023-07-29T14:18:47;99934.53;;;23.79
76583;BMP280;65462;52.148;7.940;2023-07-29T14:21:13;99942.28;;;23.64
76583;BMP280;65462;52.148;7.940;2023-07-29T14:23:38;99960.56;;;23.44
76583;BMP280;65462;52.148;7.940;2023-07-29T14:26:03;99962.34;;;23.22
76583;BMP280;65462;52.148;7.940;2023-07-29T14:28:28;99966.78;;;23.00
76583;BMP280;65462;52.148;7.940;2023-07-29T14:30:55;99968.31;;;22.85
76583;BMP280;65462;52.148;7.940;2023-07-29T14:33:20;99976.00;;;22.71